Kristine Bonnevie — LGWS — position and weather

sailwx.info

Track history (hours):
 
Tides and Currents Weather Stations Pressure Air Temp Water Temp Dewpoint Dewpoint Depression Visibility Wind Speed Wind Dir Waves Ship Positions

Oceanographic research ship Kristine Bonnevie (Norway)

Detailed information on ship capabilities available from University of Delaware's Ocean Information Center.

Last reported at 2020-Jul-15 11:59 UTC. Time now 2020-Jul-15 18:30 UTC.
Position N 60°24' E 005°19'.

Length 56.7 m; beam 12.5 m.

Type: Dredging. MMSI: 258523000.

Date/timePositionNaut miles runAvg speedWind from/ knotsBaromVisibWave heightAir tempDewpointWater temp
2020-Jul-15 11:59N 60°24' E 005°19'0 0.0
2020-Jul-15 10:29N 60°24' E 005°19'0 0.0
2020-Jul-15 05:59N 60°24' E 005°19'0 0.0
2020-Jul-15 04:29N 60°24' E 005°19'0 0.0
2020-Jul-15 03:59N 60°24' E 005°19'0 0.0
2020-Jul-15 02:29N 60°24' E 005°19'0 0.0
2020-Jul-15 00:29N 60°24' E 005°19'0 0.0
2020-Jul-14 23:29N 60°24' E 005°19'0 0.0
2020-Jul-14 21:29N 60°24' E 005°19'0 0.0
2020-Jul-14 20:59N 60°24' E 005°19'0 0.0
2020-Jul-14 20:29N 60°24' E 005°19'0 0.0
2020-Jul-14 18:29N 60°24' E 005°19'0 0.0
2020-Jul-14 15:58N 60°24' E 005°19'0 0.0
2020-Jul-14 15:28N 60°24' E 005°19'0 0.0
2020-Jul-14 13:58N 60°24' E 005°19'0 0.0
2020-Jul-14 13:28N 60°24' E 005°19'0 0.0
2020-Jul-14 06:58N 60°24' E 005°19'0 0.0
2020-Jul-14 06:25N 60°24' E 005°19'0 0.0
2020-Jul-14 04:58N 60°24' E 005°19'0 0.0
2020-Jul-14 03:28N 60°24' E 005°19'0 0.0
2020-Jul-14 02:28N 60°24' E 005°19'0 0.0
2020-Jul-14 01:28N 60°24' E 005°19'0 0.0
2020-Jul-14 00:28N 60°24' E 005°19'0 0.0
2020-Jul-13 17:58N 60°24' E 005°19'0 0.0
2020-Jul-13 16:58N 60°24' E 005°19'0 0.0
2020-Jul-13 13:28N 60°24' E 005°19'0 0.0
2020-Jul-13 12:58N 60°24' E 005°19'0 0.0
2020-Jul-13 07:58N 60°24' E 005°19'0 0.0
2020-Jul-13 03:00N 60°24' E 005°19'0 0.0
2020-Jul-12 22:30N 60°24' E 005°19'0 0.0
2020-Jul-12 22:00N 60°24' E 005°19'0 0.0
2020-Jul-12 19:00N 60°24' E 005°19'0 0.0
2020-Jul-12 18:30N 60°24' E 005°19'0 0.0
2020-Jul-12 14:30N 60°24' E 005°19'0 0.0
2020-Jul-12 13:30N 60°24' E 005°19'1 1.0
2020-Jul-12 12:30N 60°24' E 005°17'13 9.1
2020-Jul-12 11:00N 60°33' E 004°56'34 9.7
2020-Jul-12 07:30N 61°06' E 004°45'24 9.5
2020-Jul-12 05:00N 61°29' E 004°59'30 8.4
2020-Jul-12 01:30N 61°58' E 005°09'13 8.4
2020-Jul-12 00:00N 62°11' E 005°05'13 8.8
2020-Jul-11 22:29N 62°18' E 005°28'13 8.7
2020-Jul-11 21:00N 62°25' E 005°52'19 9.7
2020-Jul-11 19:00N 62°38' E 006°23'31 8.8
2020-Jul-11 15:30N 63°01' E 007°08'19 9.6
2020-Jul-11 13:30N 63°10' E 007°45'24 9.7
2020-Jul-11 11:00N 63°24' E 008°30'19 9.3
2020-Jul-11 09:00N 63°31' E 009°09'10 9.5
2020-Jul-11 08:00N 63°36' E 009°27'43 9.6
2020-Jul-11 03:29N 64°16' E 010°06'5 9.4
2020-Jul-11 03:00N 64°20' E 010°07'5 9.8
2020-Jul-11 02:30N 64°24' E 010°14'5 9.9
2020-Jul-11 02:00N 64°28' E 010°20'1010.2
2020-Jul-11 01:00N 64°36' E 010°37'2610.4
2020-Jul-10 22:30N 64°54' E 011°20'3210.6
2020-Jul-10 19:30N 65°20' E 012°02'5 9.7
2020-Jul-10 19:00N 65°25' E 011°57'3210.7
2020-Jul-10 16:00N 65°55' E 012°23'1010.4
2020-Jul-10 15:00N 66°04' E 012°38'1610.4
2020-Jul-10 13:30N 66°18' E 012°56'1610.3
2020-Jul-10 11:59N 66°33' E 013°02'1110.7
2020-Jul-10 11:00N 66°43' E 013°10'2610.3
2020-Jul-10 08:29N 67°03' E 013°52'2311.4
2020-Jul-10 06:30N 67°22' E 014°23'510.5
2020-Jul-10 06:00N 67°27' E 014°24'611.2
2020-Jul-10 05:30N 67°33' E 014°23'3210.7
2020-Jul-10 02:30N 68°02' E 014°60'610.9
2020-Jul-10 02:00N 68°05' E 015°11'611.0
2020-Jul-10 01:30N 68°09' E 015°22'511.0
2020-Jul-10 01:00N 68°12' E 015°34'510.9
2020-Jul-10 00:30N 68°16' E 015°44'23 9.0
2020-Jul-09 22:00N 68°34' E 016°23'2110.8
2020-Jul-09 20:00N 68°52' E 016°56'39 9.8
2020-Jul-09 16:00N 69°22' E 018°06'10 9.5
2020-Jul-09 14:59N 69°30' E 018°18'1010.4
2020-Jul-09 13:59N 69°34' E 018°46'7 4.8
2020-Jul-09 12:29N 69°39' E 018°58'0 0.0
2020-Jul-09 11:59N 69°39' E 018°58'0 0.0
2020-Jul-09 11:29N 69°39' E 018°58'0 0.0
2020-Jul-09 10:29N 69°39' E 018°58'0 0.0
2020-Jul-09 08:58N 69°39' E 018°58'0 0.0
2020-Jul-09 08:29N 69°39' E 018°58'8 5.7
2020-Jul-09 06:59N 69°46' E 019°12'5 4.8
2020-Jul-09 06:00N 69°48' E 019°25'26 8.6
2020-Jul-09 03:00N 70°01' E 020°31'5010.0
2020-Jul-08 22:00N 70°29' E 022°34'1610.5
2020-Jul-08 20:30N 70°38' E 023°13'3210.6
2020-Jul-08 17:30N 71°01' E 024°20'510.4
2020-Jul-08 17:00N 71°05' E 024°27'1610.3
2020-Jul-08 15:30N 71°20' E 024°45'10 6.8
2020-Jul-08 14:00N 71°29' E 024°56'0 0.5
2020-Jul-08 13:30N 71°29' E 024°56'0 0.3
2020-Jul-08 13:00N 71°29' E 024°55'0 0.2
2020-Jul-08 12:30N 71°29' E 024°55'0 0.1
2020-Jul-08 11:00N 71°29' E 024°55'46 8.3
2020-Jul-08 05:29N 72°11' E 025°55'  
Track history (hours):
 
Tides and Currents Weather Stations Pressure Air Temp Water Temp Dewpoint Dewpoint Depression Visibility Wind Speed Wind Dir Waves Ship Positions

Oceanographic research ship Kristine Bonnevie (Norway)

Detailed information on ship capabilities available from University of Delaware's Ocean Information Center.

Last reported at 2020-Jul-15 11:59 UTC. Time now 2020-Jul-15 18:30 UTC.
Position N 60°24' E 005°19'.

Length 56.7 m; beam 12.5 m.

Type: Dredging. MMSI: 258523000.

Date/timePositionNaut miles runAvg speedWind from/ knotsBaromVisibWave heightAir tempDewpointWater temp
2020-Jul-15 11:59N 60°24' E 005°19'0 0.0
2020-Jul-15 10:29N 60°24' E 005°19'0 0.0
2020-Jul-15 05:59N 60°24' E 005°19'0 0.0
2020-Jul-15 04:29N 60°24' E 005°19'0 0.0
2020-Jul-15 03:59N 60°24' E 005°19'0 0.0
2020-Jul-15 02:29N 60°24' E 005°19'0 0.0
2020-Jul-15 00:29N 60°24' E 005°19'0 0.0
2020-Jul-14 23:29N 60°24' E 005°19'0 0.0
2020-Jul-14 21:29N 60°24' E 005°19'0 0.0
2020-Jul-14 20:59N 60°24' E 005°19'0 0.0
2020-Jul-14 20:29N 60°24' E 005°19'0 0.0
2020-Jul-14 18:29N 60°24' E 005°19'0 0.0
2020-Jul-14 15:58N 60°24' E 005°19'0 0.0
2020-Jul-14 15:28N 60°24' E 005°19'0 0.0
2020-Jul-14 13:58N 60°24' E 005°19'0 0.0
2020-Jul-14 13:28N 60°24' E 005°19'0 0.0
2020-Jul-14 06:58N 60°24' E 005°19'0 0.0
2020-Jul-14 06:25N 60°24' E 005°19'0 0.0
2020-Jul-14 04:58N 60°24' E 005°19'0 0.0
2020-Jul-14 03:28N 60°24' E 005°19'0 0.0
2020-Jul-14 02:28N 60°24' E 005°19'0 0.0
2020-Jul-14 01:28N 60°24' E 005°19'0 0.0
2020-Jul-14 00:28N 60°24' E 005°19'0 0.0
2020-Jul-13 17:58N 60°24' E 005°19'0 0.0
2020-Jul-13 16:58N 60°24' E 005°19'0 0.0
2020-Jul-13 13:28N 60°24' E 005°19'0 0.0
2020-Jul-13 12:58N 60°24' E 005°19'0 0.0
2020-Jul-13 07:58N 60°24' E 005°19'0 0.0
2020-Jul-13 03:00N 60°24' E 005°19'0 0.0
2020-Jul-12 22:30N 60°24' E 005°19'0 0.0
2020-Jul-12 22:00N 60°24' E 005°19'0 0.0
2020-Jul-12 19:00N 60°24' E 005°19'0 0.0
2020-Jul-12 18:30N 60°24' E 005°19'0 0.0
2020-Jul-12 14:30N 60°24' E 005°19'0 0.0
2020-Jul-12 13:30N 60°24' E 005°19'1 1.0
2020-Jul-12 12:30N 60°24' E 005°17'13 9.1
2020-Jul-12 11:00N 60°33' E 004°56'34 9.7
2020-Jul-12 07:30N 61°06' E 004°45'24 9.5
2020-Jul-12 05:00N 61°29' E 004°59'30 8.4
2020-Jul-12 01:30N 61°58' E 005°09'13 8.4
2020-Jul-12 00:00N 62°11' E 005°05'13 8.8
2020-Jul-11 22:29N 62°18' E 005°28'13 8.7
2020-Jul-11 21:00N 62°25' E 005°52'19 9.7
2020-Jul-11 19:00N 62°38' E 006°23'31 8.8
2020-Jul-11 15:30N 63°01' E 007°08'19 9.6
2020-Jul-11 13:30N 63°10' E 007°45'24 9.7
2020-Jul-11 11:00N 63°24' E 008°30'19 9.3
2020-Jul-11 09:00N 63°31' E 009°09'10 9.5
2020-Jul-11 08:00N 63°36' E 009°27'43 9.6
2020-Jul-11 03:29N 64°16' E 010°06'5 9.4
2020-Jul-11 03:00N 64°20' E 010°07'5 9.8
2020-Jul-11 02:30N 64°24' E 010°14'5 9.9
2020-Jul-11 02:00N 64°28' E 010°20'1010.2
2020-Jul-11 01:00N 64°36' E 010°37'2610.4
2020-Jul-10 22:30N 64°54' E 011°20'3210.6
2020-Jul-10 19:30N 65°20' E 012°02'5 9.7
2020-Jul-10 19:00N 65°25' E 011°57'3210.7
2020-Jul-10 16:00N 65°55' E 012°23'1010.4
2020-Jul-10 15:00N 66°04' E 012°38'1610.4
2020-Jul-10 13:30N 66°18' E 012°56'1610.3
2020-Jul-10 11:59N 66°33' E 013°02'1110.7
2020-Jul-10 11:00N 66°43' E 013°10'2610.3
2020-Jul-10 08:29N 67°03' E 013°52'2311.4
2020-Jul-10 06:30N 67°22' E 014°23'510.5
2020-Jul-10 06:00N 67°27' E 014°24'611.2
2020-Jul-10 05:30N 67°33' E 014°23'3210.7
2020-Jul-10 02:30N 68°02' E 014°60'610.9
2020-Jul-10 02:00N 68°05' E 015°11'611.0
2020-Jul-10 01:30N 68°09' E 015°22'511.0
2020-Jul-10 01:00N 68°12' E 015°34'510.9
2020-Jul-10 00:30N 68°16' E 015°44'23 9.0
2020-Jul-09 22:00N 68°34' E 016°23'2110.8
2020-Jul-09 20:00N 68°52' E 016°56'39 9.8
2020-Jul-09 16:00N 69°22' E 018°06'10 9.5
2020-Jul-09 14:59N 69°30' E 018°18'1010.4
2020-Jul-09 13:59N 69°34' E 018°46'7 4.8
2020-Jul-09 12:29N 69°39' E 018°58'0 0.0
2020-Jul-09 11:59N 69°39' E 018°58'0 0.0
2020-Jul-09 11:29N 69°39' E 018°58'0 0.0
2020-Jul-09 10:29N 69°39' E 018°58'0 0.0
2020-Jul-09 08:58N 69°39' E 018°58'0 0.0
2020-Jul-09 08:29N 69°39' E 018°58'8 5.7
2020-Jul-09 06:59N 69°46' E 019°12'5 4.8
2020-Jul-09 06:00N 69°48' E 019°25'26 8.6
2020-Jul-09 03:00N 70°01' E 020°31'5010.0
2020-Jul-08 22:00N 70°29' E 022°34'1610.5
2020-Jul-08 20:30N 70°38' E 023°13'3210.6
2020-Jul-08 17:30N 71°01' E 024°20'510.4
2020-Jul-08 17:00N 71°05' E 024°27'1610.3
2020-Jul-08 15:30N 71°20' E 024°45'10 6.8
2020-Jul-08 14:00N 71°29' E 024°56'0 0.5
2020-Jul-08 13:30N 71°29' E 024°56'0 0.3
2020-Jul-08 13:00N 71°29' E 024°55'0 0.2
2020-Jul-08 12:30N 71°29' E 024°55'0 0.1
2020-Jul-08 11:00N 71°29' E 024°55'46 8.3
2020-Jul-08 05:29N 72°11' E 025°55'  

Dump ship's entire track history